sensor_id;sensor_type;location;lat;lon;timestamp;P1;durP1;ratioP1;P2;durP2;ratioP2
21138;SDS011;10727;43.600;1.444;2023-07-31T00:02:14;7.05;;;3.47;;
21138;SDS011;10727;43.600;1.444;2023-07-31T00:05:20;5.22;;;3.00;;
21138;SDS011;10727;43.600;1.444;2023-07-31T00:08:25;7.82;;;3.45;;
21138;SDS011;10727;43.600;1.444;2023-07-31T00:11:31;7.07;;;3.42;;
21138;SDS011;10727;43.600;1.444;2023-07-31T00:14:36;6.00;;;3.13;;
21138;SDS011;10727;43.600;1.444;2023-07-31T00:17:41;6.70;;;3.28;;
21138;SDS011;10727;43.600;1.444;2023-07-31T00:20:47;6.45;;;3.50;;
21138;SDS011;10727;43.600;1.444;2023-07-31T00:23:52;7.32;;;3.42;;
21138;SDS011;10727;43.600;1.444;2023-07-31T00:26:57;7.88;;;3.58;;
21138;SDS011;10727;43.600;1.444;2023-07-31T00:30:04;8.30;;;3.60;;
21138;SDS011;10727;43.600;1.444;2023-07-31T00:33:09;9.70;;;3.67;;
21138;SDS011;10727;43.600;1.444;2023-07-31T00:36:16;7.70;;;3.38;;
21138;SDS011;10727;43.600;1.444;2023-07-31T00:39:22;7.30;;;3.33;;
21138;SDS011;10727;43.600;1.444;2023-07-31T00:42:27;7.80;;;3.17;;
21138;SDS011;10727;43.600;1.444;2023-07-31T00:45:32;4.95;;;3.15;;
21138;SDS011;10727;43.600;1.444;2023-07-31T00:48:37;7.60;;;3.42;;
21138;SDS011;10727;43.600;1.444;2023-07-31T00:51:43;7.43;;;3.92;;
21138;SDS011;10727;43.600;1.444;2023-07-31T00:54:49;6.32;;;3.40;;
21138;SDS011;10727;43.600;1.444;2023-07-31T00:57:55;5.30;;;2.92;;
21138;SDS011;10727;43.600;1.444;2023-07-31T01:01:00;8.02;;;3.08;;
21138;SDS011;10727;43.600;1.444;2023-07-31T01:04:05;6.78;;;3.33;;
21138;SDS011;10727;43.600;1.444;2023-07-31T01:07:13;7.95;;;3.20;;
21138;SDS011;10727;43.600;1.444;2023-07-31T01:10:20;6.47;;;3.05;;
21138;SDS011;10727;43.600;1.444;2023-07-31T01:13:25;4.43;;;3.10;;
21138;SDS011;10727;43.600;1.444;2023-07-31T01:16:30;7.25;;;3.20;;
21138;SDS011;10727;43.600;1.444;2023-07-31T01:19:35;8.65;;;3.45;;
21138;SDS011;10727;43.600;1.444;2023-07-31T01:26:05;6.68;;;3.83;;
21138;SDS011;10727;43.600;1.444;2023-07-31T01:29:12;6.88;;;3.20;;
21138;SDS011;10727;43.600;1.444;2023-07-31T01:32:18;10.90;;;3.65;;
21138;SDS011;10727;43.600;1.444;2023-07-31T01:35:23;5.20;;;3.17;;
21138;SDS011;10727;43.600;1.444;2023-07-31T01:38:29;8.10;;;4.03;;
21138;SDS011;10727;43.600;1.444;2023-07-31T01:41:35;5.45;;;3.72;;
21138;SDS011;10727;43.600;1.444;2023-07-31T01:44:41;5.35;;;3.17;;
21138;SDS011;10727;43.600;1.444;2023-07-31T01:47:47;9.98;;;3.58;;
21138;SDS011;10727;43.600;1.444;2023-07-31T01:50:53;7.10;;;3.88;;
21138;SDS011;10727;43.600;1.444;2023-07-31T01:53:58;6.72;;;3.67;;
21138;SDS011;10727;43.600;1.444;2023-07-31T01:57:05;7.93;;;3.58;;
21138;SDS011;10727;43.600;1.444;2023-07-31T02:00:10;7.63;;;3.72;;
21138;SDS011;10727;43.600;1.444;2023-07-31T02:03:15;5.63;;;3.45;;
21138;SDS011;10727;43.600;1.444;2023-07-31T02:06:20;5.88;;;3.67;;
21138;SDS011;10727;43.600;1.444;2023-07-31T02:09:25;5.70;;;3.50;;
21138;SDS011;10727;43.600;1.444;2023-07-31T02:12:32;9.23;;;3.80;;
21138;SDS011;10727;43.600;1.444;2023-07-31T02:15:38;7.10;;;3.60;;
21138;SDS011;10727;43.600;1.444;2023-07-31T02:18:43;6.32;;;3.40;;
21138;SDS011;10727;43.600;1.444;2023-07-31T02:21:49;7.05;;;3.83;;
21138;SDS011;10727;43.600;1.444;2023-07-31T02:24:54;10.60;;;3.85;;
21138;SDS011;10727;43.600;1.444;2023-07-31T02:28:01;6.93;;;3.30;;
21138;SDS011;10727;43.600;1.444;2023-07-31T02:31:06;6.38;;;3.38;;
21138;SDS011;10727;43.600;1.444;2023-07-31T02:34:11;4.88;;;3.33;;
21138;SDS011;10727;43.600;1.444;2023-07-31T02:37:16;8.05;;;3.75;;
21138;SDS011;10727;43.600;1.444;2023-07-31T02:40:21;10.35;;;3.63;;
21138;SDS011;10727;43.600;1.444;2023-07-31T02:43:28;11.70;;;3.80;;
21138;SDS011;10727;43.600;1.444;2023-07-31T02:46:33;8.05;;;3.67;;
21138;SDS011;10727;43.600;1.444;2023-07-31T02:49:38;4.63;;;3.25;;
21138;SDS011;10727;43.600;1.444;2023-07-31T02:52:43;8.15;;;3.58;;
21138;SDS011;10727;43.600;1.444;2023-07-31T02:55:49;7.20;;;3.60;;
21138;SDS011;10727;43.600;1.444;2023-07-31T02:58:55;10.52;;;3.70;;
21138;SDS011;10727;43.600;1.444;2023-07-31T03:02:00;7.45;;;3.95;;
21138;SDS011;10727;43.600;1.444;2023-07-31T03:05:05;7.97;;;3.72;;
21138;SDS011;10727;43.600;1.444;2023-07-31T03:08:11;9.73;;;4.43;;
21138;SDS011;10727;43.600;1.444;2023-07-31T03:11:16;7.95;;;3.65;;
21138;SDS011;10727;43.600;1.444;2023-07-31T03:14:22;9.05;;;3.90;;
21138;SDS011;10727;43.600;1.444;2023-07-31T03:17:29;7.32;;;3.60;;
21138;SDS011;10727;43.600;1.444;2023-07-31T03:20:34;9.23;;;3.67;;
21138;SDS011;10727;43.600;1.444;2023-07-31T03:23:39;7.78;;;4.10;;
21138;SDS011;10727;43.600;1.444;2023-07-31T03:26:46;7.43;;;3.83;;
21138;SDS011;10727;43.600;1.444;2023-07-31T03:29:53;8.32;;;3.47;;
21138;SDS011;10727;43.600;1.444;2023-07-31T03:32:58;10.25;;;3.63;;
21138;SDS011;10727;43.600;1.444;2023-07-31T03:36:04;10.88;;;4.07;;
21138;SDS011;10727;43.600;1.444;2023-07-31T03:39:10;8.27;;;3.38;;
21138;SDS011;10727;43.600;1.444;2023-07-31T03:42:16;7.30;;;3.40;;
21138;SDS011;10727;43.600;1.444;2023-07-31T03:45:22;8.05;;;3.28;;
21138;SDS011;10727;43.600;1.444;2023-07-31T03:48:27;7.05;;;3.33;;
21138;SDS011;10727;43.600;1.444;2023-07-31T03:51:32;9.90;;;3.33;;
21138;SDS011;10727;43.600;1.444;2023-07-31T03:54:38;8.82;;;3.65;;
21138;SDS011;10727;43.600;1.444;2023-07-31T03:57:43;8.50;;;3.42;;
21138;SDS011;10727;43.600;1.444;2023-07-31T04:00:49;8.13;;;3.28;;
21138;SDS011;10727;43.600;1.444;2023-07-31T04:03:55;9.38;;;3.35;;
21138;SDS011;10727;43.600;1.444;2023-07-31T04:07:00;8.30;;;3.80;;
21138;SDS011;10727;43.600;1.444;2023-07-31T04:10:05;7.80;;;3.63;;
21138;SDS011;10727;43.600;1.444;2023-07-31T04:13:11;8.27;;;3.25;;
21138;SDS011;10727;43.600;1.444;2023-07-31T04:16:17;11.98;;;3.78;;
21138;SDS011;10727;43.600;1.444;2023-07-31T04:19:22;9.43;;;3.60;;
21138;SDS011;10727;43.600;1.444;2023-07-31T04:22:28;6.43;;;3.38;;
21138;SDS011;10727;43.600;1.444;2023-07-31T04:25:33;7.53;;;3.70;;
21138;SDS011;10727;43.600;1.444;2023-07-31T04:28:38;7.88;;;3.33;;
21138;SDS011;10727;43.600;1.444;2023-07-31T04:31:45;7.93;;;3.50;;
21138;SDS011;10727;43.600;1.444;2023-07-31T04:34:50;8.32;;;3.58;;
21138;SDS011;10727;43.600;1.444;2023-07-31T04:37:54;8.23;;;3.63;;
21138;SDS011;10727;43.600;1.444;2023-07-31T04:41:00;9.20;;;3.42;;
21138;SDS011;10727;43.600;1.444;2023-07-31T04:44:05;6.80;;;3.42;;
21138;SDS011;10727;43.600;1.444;2023-07-31T04:47:11;8.40;;;3.55;;
21138;SDS011;10727;43.600;1.444;2023-07-31T04:50:16;9.80;;;3.47;;
21138;SDS011;10727;43.600;1.444;2023-07-31T04:53:21;9.52;;;3.38;;
21138;SDS011;10727;43.600;1.444;2023-07-31T04:56:26;6.50;;;3.33;;
21138;SDS011;10727;43.600;1.444;2023-07-31T04:59:31;8.55;;;3.47;;
21138;SDS011;10727;43.600;1.444;2023-07-31T05:02:37;6.68;;;3.25;;
21138;SDS011;10727;43.600;1.444;2023-07-31T05:05:42;8.75;;;3.20;;
21138;SDS011;10727;43.600;1.444;2023-07-31T05:08:47;8.52;;;3.55;;
21138;SDS011;10727;43.600;1.444;2023-07-31T05:11:53;7.35;;;3.45;;
21138;SDS011;10727;43.600;1.444;2023-07-31T05:14:58;7.75;;;3.13;;
21138;SDS011;10727;43.600;1.444;2023-07-31T05:18:04;9.90;;;3.80;;
21138;SDS011;10727;43.600;1.444;2023-07-31T05:21:09;6.72;;;3.28;;
21138;SDS011;10727;43.600;1.444;2023-07-31T05:24:14;8.30;;;3.45;;
21138;SDS011;10727;43.600;1.444;2023-07-31T05:27:19;11.23;;;3.47;;
21138;SDS011;10727;43.600;1.444;2023-07-31T05:30:25;8.55;;;4.45;;
21138;SDS011;10727;43.600;1.444;2023-07-31T05:33:31;6.97;;;3.55;;
21138;SDS011;10727;43.600;1.444;2023-07-31T05:36:36;9.30;;;3.60;;
21138;SDS011;10727;43.600;1.444;2023-07-31T05:39:41;8.93;;;4.32;;
21138;SDS011;10727;43.600;1.444;2023-07-31T05:42:47;9.18;;;3.58;;
21138;SDS011;10727;43.600;1.444;2023-07-31T05:45:52;12.75;;;4.30;;
21138;SDS011;10727;43.600;1.444;2023-07-31T05:48:58;13.20;;;5.22;;
21138;SDS011;10727;43.600;1.444;2023-07-31T05:52:04;8.77;;;3.70;;
21138;SDS011;10727;43.600;1.444;2023-07-31T05:55:09;10.02;;;3.70;;
21138;SDS011;10727;43.600;1.444;2023-07-31T05:58:14;6.50;;;3.38;;
21138;SDS011;10727;43.600;1.444;2023-07-31T06:01:19;8.98;;;3.22;;
21138;SDS011;10727;43.600;1.444;2023-07-31T06:04:26;6.82;;;3.30;;
21138;SDS011;10727;43.600;1.444;2023-07-31T06:07:31;9.38;;;3.55;;
21138;SDS011;10727;43.600;1.444;2023-07-31T06:10:36;14.15;;;3.85;;
21138;SDS011;10727;43.600;1.444;2023-07-31T06:13:42;9.80;;;3.25;;
21138;SDS011;10727;43.600;1.444;2023-07-31T06:16:47;8.98;;;3.33;;
21138;SDS011;10727;43.600;1.444;2023-07-31T06:19:54;7.75;;;3.63;;
21138;SDS011;10727;43.600;1.444;2023-07-31T06:22:59;10.23;;;3.63;;
21138;SDS011;10727;43.600;1.444;2023-07-31T06:26:05;13.07;;;3.38;;
21138;SDS011;10727;43.600;1.444;2023-07-31T06:29:10;9.75;;;3.50;;
21138;SDS011;10727;43.600;1.444;2023-07-31T06:32:15;7.70;;;3.38;;
21138;SDS011;10727;43.600;1.444;2023-07-31T06:35:22;8.18;;;3.95;;
21138;SDS011;10727;43.600;1.444;2023-07-31T06:38:28;10.02;;;3.70;;
21138;SDS011;10727;43.600;1.444;2023-07-31T06:41:33;8.35;;;3.60;;
21138;SDS011;10727;43.600;1.444;2023-07-31T06:44:43;8.30;;;3.75;;
21138;SDS011;10727;43.600;1.444;2023-07-31T06:47:48;8.20;;;3.78;;
21138;SDS011;10727;43.600;1.444;2023-07-31T06:50:54;10.38;;;3.35;;
21138;SDS011;10727;43.600;1.444;2023-07-31T06:53:59;12.23;;;3.15;;
21138;SDS011;10727;43.600;1.444;2023-07-31T06:57:05;9.30;;;3.70;;
21138;SDS011;10727;43.600;1.444;2023-07-31T07:00:11;9.77;;;3.33;;
21138;SDS011;10727;43.600;1.444;2023-07-31T07:03:17;10.05;;;3.40;;
21138;SDS011;10727;43.600;1.444;2023-07-31T07:06:24;10.35;;;3.50;;
21138;SDS011;10727;43.600;1.444;2023-07-31T07:09:29;10.35;;;3.65;;
21138;SDS011;10727;43.600;1.444;2023-07-31T07:12:35;11.35;;;3.70;;
21138;SDS011;10727;43.600;1.444;2023-07-31T07:15:40;10.23;;;3.45;;
21138;SDS011;10727;43.600;1.444;2023-07-31T07:18:45;12.35;;;3.70;;
21138;SDS011;10727;43.600;1.444;2023-07-31T07:21:52;9.50;;;3.28;;
21138;SDS011;10727;43.600;1.444;2023-07-31T07:24:57;10.68;;;3.47;;
21138;SDS011;10727;43.600;1.444;2023-07-31T07:28:02;7.85;;;3.20;;
21138;SDS011;10727;43.600;1.444;2023-07-31T07:31:07;11.25;;;3.53;;
21138;SDS011;10727;43.600;1.444;2023-07-31T07:34:12;10.48;;;3.53;;
21138;SDS011;10727;43.600;1.444;2023-07-31T07:37:19;7.50;;;3.60;;
21138;SDS011;10727;43.600;1.444;2023-07-31T07:40:24;9.27;;;3.55;;
21138;SDS011;10727;43.600;1.444;2023-07-31T07:43:29;11.77;;;3.53;;
21138;SDS011;10727;43.600;1.444;2023-07-31T07:46:34;10.15;;;3.28;;
21138;SDS011;10727;43.600;1.444;2023-07-31T07:49:39;12.27;;;3.70;;
21138;SDS011;10727;43.600;1.444;2023-07-31T07:52:45;10.50;;;3.47;;
21138;SDS011;10727;43.600;1.444;2023-07-31T07:55:50;13.18;;;3.33;;
21138;SDS011;10727;43.600;1.444;2023-07-31T07:58:56;8.75;;;2.78;;
21138;SDS011;10727;43.600;1.444;2023-07-31T08:02:00;12.35;;;3.83;;
21138;SDS011;10727;43.600;1.444;2023-07-31T08:05:06;12.27;;;4.00;;
21138;SDS011;10727;43.600;1.444;2023-07-31T08:08:15;11.90;;;3.38;;
21138;SDS011;10727;43.600;1.444;2023-07-31T08:11:20;10.00;;;3.40;;
21138;SDS011;10727;43.600;1.444;2023-07-31T08:14:26;9.75;;;3.80;;
21138;SDS011;10727;43.600;1.444;2023-07-31T08:17:31;9.75;;;3.10;;
21138;SDS011;10727;43.600;1.444;2023-07-31T08:20:36;10.48;;;3.60;;
21138;SDS011;10727;43.600;1.444;2023-07-31T08:23:42;10.50;;;3.30;;
21138;SDS011;10727;43.600;1.444;2023-07-31T08:26:47;11.15;;;3.15;;
21138;SDS011;10727;43.600;1.444;2023-07-31T08:29:53;7.03;;;3.17;;
21138;SDS011;10727;43.600;1.444;2023-07-31T08:32:58;10.57;;;3.40;;
21138;SDS011;10727;43.600;1.444;2023-07-31T08:36:03;10.13;;;3.40;;
21138;SDS011;10727;43.600;1.444;2023-07-31T08:39:09;12.77;;;3.80;;
21138;SDS011;10727;43.600;1.444;2023-07-31T08:42:15;10.18;;;3.10;;
21138;SDS011;10727;43.600;1.444;2023-07-31T08:45:20;7.68;;;3.15;;
21138;SDS011;10727;43.600;1.444;2023-07-31T08:48:25;9.10;;;3.10;;
21138;SDS011;10727;43.600;1.444;2023-07-31T08:51:32;7.93;;;3.30;;
21138;SDS011;10727;43.600;1.444;2023-07-31T08:54:39;10.00;;;3.42;;
21138;SDS011;10727;43.600;1.444;2023-07-31T08:57:44;7.18;;;3.25;;
21138;SDS011;10727;43.600;1.444;2023-07-31T09:00:50;10.38;;;3.40;;
21138;SDS011;10727;43.600;1.444;2023-07-31T09:03:55;6.97;;;2.90;;
21138;SDS011;10727;43.600;1.444;2023-07-31T09:07:02;10.43;;;3.10;;
21138;SDS011;10727;43.600;1.444;2023-07-31T09:10:09;5.85;;;2.67;;
21138;SDS011;10727;43.600;1.444;2023-07-31T09:13:14;7.05;;;2.88;;
21138;SDS011;10727;43.600;1.444;2023-07-31T09:16:19;8.32;;;3.13;;
21138;SDS011;10727;43.600;1.444;2023-07-31T09:19:33;6.82;;;2.42;;
21138;SDS011;10727;43.600;1.444;2023-07-31T09:22:40;8.73;;;5.05;;
21138;SDS011;10727;43.600;1.444;2023-07-31T09:25:47;10.35;;;5.20;;
21138;SDS011;10727;43.600;1.444;2023-07-31T09:28:53;7.07;;;3.78;;
21138;SDS011;10727;43.600;1.444;2023-07-31T09:31:58;6.72;;;2.17;;
21138;SDS011;10727;43.600;1.444;2023-07-31T09:35:07;5.57;;;2.15;;
21138;SDS011;10727;43.600;1.444;2023-07-31T09:38:17;6.35;;;2.22;;
21138;SDS011;10727;43.600;1.444;2023-07-31T09:41:23;5.38;;;2.47;;
21138;SDS011;10727;43.600;1.444;2023-07-31T09:44:38;4.93;;;2.20;;
21138;SDS011;10727;43.600;1.444;2023-07-31T09:47:46;8.00;;;2.75;;
21138;SDS011;10727;43.600;1.444;2023-07-31T09:50:52;7.13;;;2.50;;
21138;SDS011;10727;43.600;1.444;2023-07-31T09:53:58;3.03;;;2.17;;
21138;SDS011;10727;43.600;1.444;2023-07-31T09:57:05;6.00;;;2.60;;
21138;SDS011;10727;43.600;1.444;2023-07-31T10:00:10;5.13;;;2.30;;
21138;SDS011;10727;43.600;1.444;2023-07-31T10:03:16;6.72;;;2.50;;
21138;SDS011;10727;43.600;1.444;2023-07-31T10:06:21;6.03;;;1.92;;
21138;SDS011;10727;43.600;1.444;2023-07-31T10:09:26;8.65;;;2.30;;
21138;SDS011;10727;43.600;1.444;2023-07-31T10:12:34;5.10;;;2.40;;
21138;SDS011;10727;43.600;1.444;2023-07-31T10:15:40;8.63;;;2.72;;
21138;SDS011;10727;43.600;1.444;2023-07-31T10:18:46;5.45;;;2.30;;
21138;SDS011;10727;43.600;1.444;2023-07-31T10:21:52;6.15;;;2.70;;
21138;SDS011;10727;43.600;1.444;2023-07-31T10:25:00;7.55;;;1.92;;
21138;SDS011;10727;43.600;1.444;2023-07-31T10:28:06;4.50;;;2.20;;
21138;SDS011;10727;43.600;1.444;2023-07-31T10:31:12;5.10;;;2.30;;
21138;SDS011;10727;43.600;1.444;2023-07-31T10:34:18;4.35;;;1.90;;
21138;SDS011;10727;43.600;1.444;2023-07-31T10:37:24;6.07;;;2.25;;
21138;SDS011;10727;43.600;1.444;2023-07-31T10:40:29;6.50;;;2.35;;
21138;SDS011;10727;43.600;1.444;2023-07-31T10:43:35;3.70;;;2.03;;
21138;SDS011;10727;43.600;1.444;2023-07-31T10:46:41;4.22;;;2.13;;
21138;SDS011;10727;43.600;1.444;2023-07-31T10:49:46;4.93;;;2.20;;
21138;SDS011;10727;43.600;1.444;2023-07-31T10:52:51;5.22;;;2.33;;
21138;SDS011;10727;43.600;1.444;2023-07-31T10:55:57;9.05;;;2.80;;
21138;SDS011;10727;43.600;1.444;2023-07-31T10:59:04;5.53;;;2.60;;
21138;SDS011;10727;43.600;1.444;2023-07-31T11:02:10;4.85;;;2.45;;
21138;SDS011;10727;43.600;1.444;2023-07-31T11:05:44;6.25;;;2.25;;
21138;SDS011;10727;43.600;1.444;2023-07-31T11:08:50;5.68;;;2.38;;
21138;SDS011;10727;43.600;1.444;2023-07-31T11:11:55;5.38;;;2.22;;
21138;SDS011;10727;43.600;1.444;2023-07-31T11:15:02;6.50;;;2.25;;
21138;SDS011;10727;43.600;1.444;2023-07-31T11:18:07;4.60;;;2.28;;
21138;SDS011;10727;43.600;1.444;2023-07-31T11:21:14;8.70;;;3.42;;
21138;SDS011;10727;43.600;1.444;2023-07-31T11:24:19;9.20;;;2.78;;
21138;SDS011;10727;43.600;1.444;2023-07-31T11:27:27;5.63;;;2.58;;
21138;SDS011;10727;43.600;1.444;2023-07-31T11:30:33;6.18;;;2.50;;
21138;SDS011;10727;43.600;1.444;2023-07-31T11:33:39;5.35;;;2.35;;
21138;SDS011;10727;43.600;1.444;2023-07-31T11:36:52;5.72;;;3.00;;
21138;SDS011;10727;43.600;1.444;2023-07-31T11:39:59;7.43;;;2.90;;
21138;SDS011;10727;43.600;1.444;2023-07-31T11:43:04;3.72;;;2.50;;
21138;SDS011;10727;43.600;1.444;2023-07-31T11:46:10;8.52;;;3.13;;
21138;SDS011;10727;43.600;1.444;2023-07-31T11:49:17;10.93;;;3.22;;
21138;SDS011;10727;43.600;1.444;2023-07-31T11:52:22;7.18;;;2.90;;
21138;SDS011;10727;43.600;1.444;2023-07-31T11:55:27;7.20;;;3.47;;
21138;SDS011;10727;43.600;1.444;2023-07-31T11:58:32;9.32;;;4.13;;
21138;SDS011;10727;43.600;1.444;2023-07-31T12:01:40;7.85;;;3.13;;
21138;SDS011;10727;43.600;1.444;2023-07-31T12:04:46;6.40;;;2.83;;
21138;SDS011;10727;43.600;1.444;2023-07-31T12:07:52;5.63;;;2.38;;
21138;SDS011;10727;43.600;1.444;2023-07-31T12:11:01;7.78;;;2.97;;
21138;SDS011;10727;43.600;1.444;2023-07-31T12:14:07;7.68;;;3.67;;
21138;SDS011;10727;43.600;1.444;2023-07-31T12:17:14;6.60;;;3.13;;
21138;SDS011;10727;43.600;1.444;2023-07-31T12:20:19;8.40;;;3.47;;
21138;SDS011;10727;43.600;1.444;2023-07-31T12:23:25;5.68;;;3.60;;
21138;SDS011;10727;43.600;1.444;2023-07-31T12:26:33;9.90;;;3.88;;
21138;SDS011;10727;43.600;1.444;2023-07-31T12:29:38;7.13;;;3.40;;
21138;SDS011;10727;43.600;1.444;2023-07-31T12:32:45;6.05;;;3.17;;
21138;SDS011;10727;43.600;1.444;2023-07-31T12:35:49;5.82;;;3.08;;
21138;SDS011;10727;43.600;1.444;2023-07-31T12:38:54;5.32;;;3.15;;
21138;SDS011;10727;43.600;1.444;2023-07-31T12:42:01;8.23;;;2.85;;
21138;SDS011;10727;43.600;1.444;2023-07-31T12:45:07;8.40;;;2.90;;
21138;SDS011;10727;43.600;1.444;2023-07-31T12:48:14;5.70;;;2.50;;
21138;SDS011;10727;43.600;1.444;2023-07-31T12:51:19;4.65;;;2.63;;
21138;SDS011;10727;43.600;1.444;2023-07-31T12:54:24;11.18;;;3.70;;
21138;SDS011;10727;43.600;1.444;2023-07-31T12:57:29;5.13;;;2.45;;
21138;SDS011;10727;43.600;1.444;2023-07-31T13:00:34;6.90;;;2.90;;
21138;SDS011;10727;43.600;1.444;2023-07-31T13:03:40;8.25;;;2.40;;
21138;SDS011;10727;43.600;1.444;2023-07-31T13:06:45;5.03;;;2.50;;
21138;SDS011;10727;43.600;1.444;2023-07-31T13:09:51;6.28;;;2.40;;
21138;SDS011;10727;43.600;1.444;2023-07-31T13:12:56;4.75;;;2.42;;
21138;SDS011;10727;43.600;1.444;2023-07-31T13:16:01;4.00;;;2.60;;
21138;SDS011;10727;43.600;1.444;2023-07-31T13:19:07;4.90;;;2.35;;
21138;SDS011;10727;43.600;1.444;2023-07-31T13:22:12;5.18;;;2.00;;
21138;SDS011;10727;43.600;1.444;2023-07-31T13:25:18;7.50;;;2.10;;
21138;SDS011;10727;43.600;1.444;2023-07-31T13:28:23;3.92;;;2.08;;
21138;SDS011;10727;43.600;1.444;2023-07-31T13:31:28;8.85;;;4.63;;
21138;SDS011;10727;43.600;1.444;2023-07-31T13:34:35;7.90;;;3.80;;
21138;SDS011;10727;43.600;1.444;2023-07-31T13:37:40;4.60;;;2.67;;
21138;SDS011;10727;43.600;1.444;2023-07-31T13:40:45;6.53;;;3.17;;
21138;SDS011;10727;43.600;1.444;2023-07-31T13:43:50;3.88;;;2.63;;
21138;SDS011;10727;43.600;1.444;2023-07-31T13:46:55;7.57;;;2.97;;
21138;SDS011;10727;43.600;1.444;2023-07-31T13:50:01;7.07;;;2.40;;
21138;SDS011;10727;43.600;1.444;2023-07-31T13:53:07;5.95;;;2.70;;
21138;SDS011;10727;43.600;1.444;2023-07-31T13:56:12;4.20;;;2.15;;
21138;SDS011;10727;43.600;1.444;2023-07-31T13:59:17;5.50;;;2.67;;
21138;SDS011;10727;43.600;1.444;2023-07-31T14:02:23;4.28;;;2.40;;
21138;SDS011;10727;43.600;1.444;2023-07-31T14:05:29;4.55;;;2.33;;
21138;SDS011;10727;43.600;1.444;2023-07-31T14:08:34;6.60;;;2.40;;
21138;SDS011;10727;43.600;1.444;2023-07-31T14:11:39;7.93;;;3.05;;
21138;SDS011;10727;43.600;1.444;2023-07-31T14:14:44;3.95;;;2.40;;
21138;SDS011;10727;43.600;1.444;2023-07-31T14:17:49;5.47;;;2.80;;
21138;SDS011;10727;43.600;1.444;2023-07-31T14:20:56;6.70;;;2.92;;
21138;SDS011;10727;43.600;1.444;2023-07-31T14:24:01;4.93;;;2.60;;
21138;SDS011;10727;43.600;1.444;2023-07-31T14:27:06;4.47;;;2.72;;
21138;SDS011;10727;43.600;1.444;2023-07-31T14:30:11;5.32;;;2.60;;
21138;SDS011;10727;43.600;1.444;2023-07-31T14:33:16;5.75;;;2.88;;
21138;SDS011;10727;43.600;1.444;2023-07-31T14:36:23;6.32;;;2.90;;
21138;SDS011;10727;43.600;1.444;2023-07-31T14:39:27;5.95;;;2.70;;
21138;SDS011;10727;43.600;1.444;2023-07-31T14:42:32;4.18;;;2.65;;
21138;SDS011;10727;43.600;1.444;2023-07-31T14:45:37;4.60;;;3.00;;
21138;SDS011;10727;43.600;1.444;2023-07-31T14:48:42;6.10;;;2.60;;
21138;SDS011;10727;43.600;1.444;2023-07-31T14:51:49;6.40;;;2.72;;
21138;SDS011;10727;43.600;1.444;2023-07-31T14:54:54;8.07;;;3.38;;
21138;SDS011;10727;43.600;1.444;2023-07-31T14:57:59;5.10;;;2.72;;
21138;SDS011;10727;43.600;1.444;2023-07-31T15:01:04;7.82;;;3.58;;
21138;SDS011;10727;43.600;1.444;2023-07-31T15:04:09;10.45;;;2.83;;
21138;SDS011;10727;43.600;1.444;2023-07-31T15:07:16;5.78;;;3.08;;
21138;SDS011;10727;43.600;1.444;2023-07-31T15:10:20;7.57;;;2.67;;
21138;SDS011;10727;43.600;1.444;2023-07-31T15:13:25;6.22;;;2.70;;
21138;SDS011;10727;43.600;1.444;2023-07-31T15:16:30;5.28;;;2.63;;
21138;SDS011;10727;43.600;1.444;2023-07-31T15:19:35;5.50;;;2.80;;
21138;SDS011;10727;43.600;1.444;2023-07-31T15:22:42;4.93;;;2.80;;
21138;SDS011;10727;43.600;1.444;2023-07-31T15:25:47;5.68;;;2.88;;
21138;SDS011;10727;43.600;1.444;2023-07-31T15:28:56;6.35;;;3.22;;
21138;SDS011;10727;43.600;1.444;2023-07-31T15:32:01;8.88;;;3.10;;
21138;SDS011;10727;43.600;1.444;2023-07-31T15:35:06;6.05;;;3.13;;
21138;SDS011;10727;43.600;1.444;2023-07-31T15:38:13;6.88;;;3.38;;
21138;SDS011;10727;43.600;1.444;2023-07-31T15:41:18;6.68;;;3.05;;
21138;SDS011;10727;43.600;1.444;2023-07-31T15:44:23;10.02;;;3.50;;
21138;SDS011;10727;43.600;1.444;2023-07-31T15:47:28;5.70;;;3.20;;
21138;SDS011;10727;43.600;1.444;2023-07-31T15:50:33;7.20;;;3.55;;
21138;SDS011;10727;43.600;1.444;2023-07-31T15:53:40;5.72;;;3.60;;
21138;SDS011;10727;43.600;1.444;2023-07-31T15:56:45;5.70;;;3.38;;
21138;SDS011;10727;43.600;1.444;2023-07-31T15:59:50;6.88;;;2.95;;
21138;SDS011;10727;43.600;1.444;2023-07-31T16:02:55;8.95;;;3.58;;
21138;SDS011;10727;43.600;1.444;2023-07-31T16:06:00;5.82;;;3.22;;
21138;SDS011;10727;43.600;1.444;2023-07-31T16:09:07;4.60;;;2.97;;
21138;SDS011;10727;43.600;1.444;2023-07-31T16:12:12;4.75;;;3.05;;
21138;SDS011;10727;43.600;1.444;2023-07-31T16:15:18;11.75;;;3.55;;
21138;SDS011;10727;43.600;1.444;2023-07-31T16:18:23;8.65;;;3.78;;
21138;SDS011;10727;43.600;1.444;2023-07-31T16:21:29;6.80;;;3.80;;
21138;SDS011;10727;43.600;1.444;2023-07-31T16:24:36;6.95;;;3.63;;
21138;SDS011;10727;43.600;1.444;2023-07-31T16:27:41;5.93;;;3.55;;
21138;SDS011;10727;43.600;1.444;2023-07-31T16:30:46;4.20;;;3.08;;
21138;SDS011;10727;43.600;1.444;2023-07-31T16:33:51;7.97;;;3.42;;
21138;SDS011;10727;43.600;1.444;2023-07-31T16:36:56;7.20;;;3.40;;
21138;SDS011;10727;43.600;1.444;2023-07-31T16:40:02;7.47;;;3.10;;
21138;SDS011;10727;43.600;1.444;2023-07-31T16:43:08;7.18;;;3.33;;
21138;SDS011;10727;43.600;1.444;2023-07-31T16:46:13;5.40;;;3.10;;
21138;SDS011;10727;43.600;1.444;2023-07-31T16:49:18;5.55;;;3.35;;
21138;SDS011;10727;43.600;1.444;2023-07-31T16:52:23;6.05;;;3.50;;
21138;SDS011;10727;43.600;1.444;2023-07-31T16:55:30;8.93;;;3.88;;
21138;SDS011;10727;43.600;1.444;2023-07-31T16:58:36;5.70;;;3.65;;
21138;SDS011;10727;43.600;1.444;2023-07-31T17:01:41;6.55;;;3.25;;
21138;SDS011;10727;43.600;1.444;2023-07-31T17:04:46;6.78;;;3.50;;
21138;SDS011;10727;43.600;1.444;2023-07-31T17:07:52;6.88;;;3.78;;
21138;SDS011;10727;43.600;1.444;2023-07-31T17:10:58;6.20;;;3.58;;
21138;SDS011;10727;43.600;1.444;2023-07-31T17:14:03;8.18;;;3.67;;
21138;SDS011;10727;43.600;1.444;2023-07-31T17:17:09;6.70;;;4.20;;
21138;SDS011;10727;43.600;1.444;2023-07-31T17:20:14;7.13;;;3.50;;
21138;SDS011;10727;43.600;1.444;2023-07-31T17:23:20;6.43;;;3.72;;
21138;SDS011;10727;43.600;1.444;2023-07-31T17:26:26;9.30;;;4.05;;
21138;SDS011;10727;43.600;1.444;2023-07-31T17:29:31;6.63;;;3.60;;
21138;SDS011;10727;43.600;1.444;2023-07-31T17:32:37;6.22;;;4.10;;
21138;SDS011;10727;43.600;1.444;2023-07-31T17:35:42;7.60;;;3.88;;
21138;SDS011;10727;43.600;1.444;2023-07-31T17:38:48;5.95;;;4.00;;
21138;SDS011;10727;43.600;1.444;2023-07-31T17:41:55;11.68;;;6.82;;
21138;SDS011;10727;43.600;1.444;2023-07-31T17:45:00;7.05;;;4.45;;
21138;SDS011;10727;43.600;1.444;2023-07-31T17:48:06;6.95;;;4.22;;
21138;SDS011;10727;43.600;1.444;2023-07-31T17:51:11;10.35;;;3.95;;
21138;SDS011;10727;43.600;1.444;2023-07-31T17:54:16;6.63;;;4.03;;
21138;SDS011;10727;43.600;1.444;2023-07-31T17:57:23;6.63;;;4.07;;
21138;SDS011;10727;43.600;1.444;2023-07-31T18:00:28;7.97;;;3.90;;
21138;SDS011;10727;43.600;1.444;2023-07-31T18:03:34;7.45;;;4.07;;
21138;SDS011;10727;43.600;1.444;2023-07-31T18:06:39;8.25;;;4.20;;
21138;SDS011;10727;43.600;1.444;2023-07-31T18:09:44;5.72;;;3.75;;
21138;SDS011;10727;43.600;1.444;2023-07-31T18:12:52;7.07;;;3.85;;
21138;SDS011;10727;43.600;1.444;2023-07-31T18:15:56;6.35;;;3.67;;
21138;SDS011;10727;43.600;1.444;2023-07-31T18:19:02;7.35;;;4.28;;
21138;SDS011;10727;43.600;1.444;2023-07-31T18:22:07;7.53;;;4.32;;
21138;SDS011;10727;43.600;1.444;2023-07-31T18:25:12;7.72;;;4.57;;
21138;SDS011;10727;43.600;1.444;2023-07-31T18:28:18;8.63;;;4.18;;
21138;SDS011;10727;43.600;1.444;2023-07-31T18:31:23;8.98;;;4.22;;
21138;SDS011;10727;43.600;1.444;2023-07-31T18:34:29;6.32;;;4.40;;
21138;SDS011;10727;43.600;1.444;2023-07-31T18:37:34;7.53;;;4.10;;
21138;SDS011;10727;43.600;1.444;2023-07-31T18:40:38;11.48;;;4.22;;